sensor_id;sensor_type;location;lat;lon;timestamp;pressure;altitude;pressure_sealevel;temperature;humidity
84248;BME280;74387;44.536;18.530;2024-02-21T00:02:18;100377.34;;;8.19;nan
84248;BME280;74387;44.536;18.530;2024-02-21T00:04:44;100366.13;;;8.13;nan
84248;BME280;74387;44.536;18.530;2024-02-21T00:07:10;100366.44;;;8.08;nan
84248;BME280;74387;44.536;18.530;2024-02-21T00:09:36;100359.09;;;8.05;nan
84248;BME280;74387;44.536;18.530;2024-02-21T00:12:01;100367.56;;;8.07;nan
84248;BME280;74387;44.536;18.530;2024-02-21T00:14:28;100355.63;;;8.04;nan
84248;BME280;74387;44.536;18.530;2024-02-21T00:16:54;100349.75;;;7.95;nan
84248;BME280;74387;44.536;18.530;2024-02-21T00:19:19;100351.31;;;7.96;nan
84248;BME280;74387;44.536;18.530;2024-02-21T00:21:46;100351.75;;;8.02;nan
84248;BME280;74387;44.536;18.530;2024-02-21T00:24:11;100353.72;;;8.05;nan
84248;BME280;74387;44.536;18.530;2024-02-21T00:26:37;100365.59;;;8.04;nan
84248;BME280;74387;44.536;18.530;2024-02-21T00:29:03;100358.31;;;8.04;nan
84248;BME280;74387;44.536;18.530;2024-02-21T00:31:29;100357.81;;;7.95;nan
84248;BME280;74387;44.536;18.530;2024-02-21T00:33:55;100351.97;;;7.90;nan
84248;BME280;74387;44.536;18.530;2024-02-21T00:36:20;100350.84;;;7.91;nan
84248;BME280;74387;44.536;18.530;2024-02-21T00:38:46;100352.75;;;7.90;nan
84248;BME280;74387;44.536;18.530;2024-02-21T00:41:12;100356.28;;;7.94;nan
84248;BME280;74387;44.536;18.530;2024-02-21T00:43:37;100352.09;;;7.97;nan
84248;BME280;74387;44.536;18.530;2024-02-21T00:46:05;100344.44;;;7.99;nan
84248;BME280;74387;44.536;18.530;2024-02-21T00:48:31;100343.28;;;8.00;nan
84248;BME280;74387;44.536;18.530;2024-02-21T00:50:57;100344.47;;;8.02;nan
84248;BME280;74387;44.536;18.530;2024-02-21T00:53:23;100353.31;;;8.03;nan
84248;BME280;74387;44.536;18.530;2024-02-21T00:55:49;100359.56;;;7.84;nan
84248;BME280;74387;44.536;18.530;2024-02-21T00:58:15;100346.59;;;7.67;nan
84248;BME280;74387;44.536;18.530;2024-02-21T01:00:40;100352.53;;;7.53;nan
84248;BME280;74387;44.536;18.530;2024-02-21T01:03:06;100347.31;;;7.41;nan
84248;BME280;74387;44.536;18.530;2024-02-21T01:05:32;100344.72;;;7.45;nan
84248;BME280;74387;44.536;18.530;2024-02-21T01:07:58;100339.91;;;7.34;nan
84248;BME280;74387;44.536;18.530;2024-02-21T01:10:24;100340.50;;;7.24;nan
84248;BME280;74387;44.536;18.530;2024-02-21T01:12:49;100338.41;;;7.14;nan
84248;BME280;74387;44.536;18.530;2024-02-21T01:15:15;100333.63;;;7.04;nan
84248;BME280;74387;44.536;18.530;2024-02-21T01:17:41;100332.56;;;7.09;nan
84248;BME280;74387;44.536;18.530;2024-02-21T01:20:07;100329.00;;;7.24;nan
84248;BME280;74387;44.536;18.530;2024-02-21T01:22:33;100333.66;;;7.27;nan
84248;BME280;74387;44.536;18.530;2024-02-21T01:24:59;100325.38;;;7.35;nan
84248;BME280;74387;44.536;18.530;2024-02-21T01:27:24;100329.66;;;7.40;nan
84248;BME280;74387;44.536;18.530;2024-02-21T01:29:50;100331.75;;;7.50;nan
84248;BME280;74387;44.536;18.530;2024-02-21T01:32:16;100326.94;;;7.59;nan
84248;BME280;74387;44.536;18.530;2024-02-21T01:34:42;100325.13;;;7.67;nan
84248;BME280;74387;44.536;18.530;2024-02-21T01:37:08;100330.66;;;7.78;nan
84248;BME280;74387;44.536;18.530;2024-02-21T01:39:34;100328.09;;;7.85;nan
84248;BME280;74387;44.536;18.530;2024-02-21T01:42:00;100328.16;;;7.88;nan
84248;BME280;74387;44.536;18.530;2024-02-21T01:44:26;100326.72;;;7.94;nan
84248;BME280;74387;44.536;18.530;2024-02-21T01:46:52;100327.91;;;7.97;nan
84248;BME280;74387;44.536;18.530;2024-02-21T01:49:19;100330.19;;;7.95;nan
84248;BME280;74387;44.536;18.530;2024-02-21T01:51:46;100329.41;;;7.94;nan
84248;BME280;74387;44.536;18.530;2024-02-21T01:54:14;100319.66;;;7.86;nan
84248;BME280;74387;44.536;18.530;2024-02-21T01:56:42;100320.44;;;7.87;nan
84248;BME280;74387;44.536;18.530;2024-02-21T01:59:08;100320.44;;;7.87;nan
84248;BME280;74387;44.536;18.530;2024-02-21T02:01:34;100313.94;;;7.88;nan
84248;BME280;74387;44.536;18.530;2024-02-21T02:04:25;100311.25;;;7.88;nan
84248;BME280;74387;44.536;18.530;2024-02-21T02:07:17;100313.41;;;7.79;nan
84248;BME280;74387;44.536;18.530;2024-02-21T02:09:43;100304.34;;;7.64;nan
84248;BME280;74387;44.536;18.530;2024-02-21T02:12:09;100307.50;;;7.69;nan
84248;BME280;74387;44.536;18.530;2024-02-21T02:14:34;100309.13;;;7.74;nan
84248;BME280;74387;44.536;18.530;2024-02-21T02:17:00;100311.75;;;7.70;nan
84248;BME280;74387;44.536;18.530;2024-02-21T02:19:26;100304.53;;;7.75;nan
84248;BME280;74387;44.536;18.530;2024-02-21T02:21:55;100308.59;;;7.65;nan
84248;BME280;74387;44.536;18.530;2024-02-21T02:24:24;100307.34;;;7.59;nan
84248;BME280;74387;44.536;18.530;2024-02-21T02:26:51;100317.03;;;7.41;nan
84248;BME280;74387;44.536;18.530;2024-02-21T02:29:17;100321.50;;;7.33;nan
84248;BME280;74387;44.536;18.530;2024-02-21T02:31:43;100326.19;;;7.17;nan
84248;BME280;74387;44.536;18.530;2024-02-21T02:34:08;100315.41;;;7.13;nan
84248;BME280;74387;44.536;18.530;2024-02-21T02:36:35;100322.91;;;7.04;nan
84248;BME280;74387;44.536;18.530;2024-02-21T02:39:01;100317.75;;;6.95;nan
84248;BME280;74387;44.536;18.530;2024-02-21T02:41:27;100324.25;;;6.94;nan
84248;BME280;74387;44.536;18.530;2024-02-21T02:43:53;100331.28;;;7.02;nan
84248;BME280;74387;44.536;18.530;2024-02-21T02:46:18;100336.53;;;6.95;nan
84248;BME280;74387;44.536;18.530;2024-02-21T02:48:44;100347.69;;;6.97;nan
84248;BME280;74387;44.536;18.530;2024-02-21T02:51:10;100341.97;;;6.99;nan
84248;BME280;74387;44.536;18.530;2024-02-21T02:53:36;100337.31;;;6.96;nan
84248;BME280;74387;44.536;18.530;2024-02-21T02:56:02;100334.25;;;6.97;nan
84248;BME280;74387;44.536;18.530;2024-02-21T02:58:28;100340.75;;;6.96;nan
84248;BME280;74387;44.536;18.530;2024-02-21T03:00:54;100344.16;;;6.93;nan
84248;BME280;74387;44.536;18.530;2024-02-21T03:03:19;100347.31;;;6.99;nan
84248;BME280;74387;44.536;18.530;2024-02-21T03:05:46;100350.66;;;6.92;nan
84248;BME280;74387;44.536;18.530;2024-02-21T03:08:11;100345.34;;;6.96;nan
84248;BME280;74387;44.536;18.530;2024-02-21T03:10:37;100343.94;;;7.02;nan
84248;BME280;74387;44.536;18.530;2024-02-21T03:13:03;100357.72;;;7.00;nan
84248;BME280;74387;44.536;18.530;2024-02-21T03:15:29;100352.91;;;6.90;nan
84248;BME280;74387;44.536;18.530;2024-02-21T03:17:55;100354.91;;;6.74;nan
84248;BME280;74387;44.536;18.530;2024-02-21T03:20:20;100352.84;;;6.67;nan
84248;BME280;74387;44.536;18.530;2024-02-21T03:22:46;100365.63;;;6.74;nan
84248;BME280;74387;44.536;18.530;2024-02-21T03:25:12;100361.81;;;6.75;nan
84248;BME280;74387;44.536;18.530;2024-02-21T03:27:39;100362.94;;;6.74;nan
84248;BME280;74387;44.536;18.530;2024-02-21T03:30:05;100361.94;;;6.63;nan
84248;BME280;74387;44.536;18.530;2024-02-21T03:32:31;100367.44;;;6.70;nan
84248;BME280;74387;44.536;18.530;2024-02-21T03:34:57;100356.72;;;6.70;nan
84248;BME280;74387;44.536;18.530;2024-02-21T03:37:22;100371.09;;;6.81;nan
84248;BME280;74387;44.536;18.530;2024-02-21T03:39:48;100369.88;;;6.75;nan
84248;BME280;74387;44.536;18.530;2024-02-21T03:42:14;100371.97;;;6.66;nan
84248;BME280;74387;44.536;18.530;2024-02-21T03:44:39;100369.34;;;6.69;nan
84248;BME280;74387;44.536;18.530;2024-02-21T03:47:05;100371.00;;;6.74;nan
84248;BME280;74387;44.536;18.530;2024-02-21T03:49:31;100375.34;;;6.82;nan
84248;BME280;74387;44.536;18.530;2024-02-21T03:51:57;100378.44;;;6.84;nan
84248;BME280;74387;44.536;18.530;2024-02-21T03:54:22;100379.72;;;6.90;nan
84248;BME280;74387;44.536;18.530;2024-02-21T03:56:48;100383.38;;;6.82;nan
84248;BME280;74387;44.536;18.530;2024-02-21T03:59:14;100374.88;;;6.77;nan
84248;BME280;74387;44.536;18.530;2024-02-21T04:01:40;100375.56;;;6.74;nan
84248;BME280;74387;44.536;18.530;2024-02-21T04:04:06;100382.63;;;6.82;nan
84248;BME280;74387;44.536;18.530;2024-02-21T04:06:32;100380.34;;;6.84;nan
84248;BME280;74387;44.536;18.530;2024-02-21T04:08:58;100380.00;;;6.85;nan
84248;BME280;74387;44.536;18.530;2024-02-21T04:11:24;100375.50;;;6.89;nan
84248;BME280;74387;44.536;18.530;2024-02-21T04:13:50;100373.44;;;6.83;nan
84248;BME280;74387;44.536;18.530;2024-02-21T04:16:17;100375.06;;;6.87;nan
84248;BME280;74387;44.536;18.530;2024-02-21T04:18:43;100370.97;;;6.93;nan
84248;BME280;74387;44.536;18.530;2024-02-21T04:21:10;100374.94;;;6.99;nan
84248;BME280;74387;44.536;18.530;2024-02-21T04:23:35;100373.03;;;7.00;nan
84248;BME280;74387;44.536;18.530;2024-02-21T04:26:01;100368.88;;;7.02;nan
84248;BME280;74387;44.536;18.530;2024-02-21T04:28:27;100376.56;;;7.04;nan
84248;BME280;74387;44.536;18.530;2024-02-21T04:30:53;100380.22;;;6.96;nan
84248;BME280;74387;44.536;18.530;2024-02-21T04:33:18;100381.78;;;6.78;nan
84248;BME280;74387;44.536;18.530;2024-02-21T04:35:44;100387.44;;;6.73;nan
84248;BME280;74387;44.536;18.530;2024-02-21T04:38:10;100382.50;;;6.75;nan
84248;BME280;74387;44.536;18.530;2024-02-21T04:40:36;100384.31;;;6.71;nan
84248;BME280;74387;44.536;18.530;2024-02-21T04:43:01;100389.34;;;6.72;nan
84248;BME280;74387;44.536;18.530;2024-02-21T04:45:27;100385.28;;;6.82;nan
84248;BME280;74387;44.536;18.530;2024-02-21T04:47:53;100386.94;;;6.86;nan
84248;BME280;74387;44.536;18.530;2024-02-21T04:50:19;100397.03;;;6.93;nan
84248;BME280;74387;44.536;18.530;2024-02-21T04:52:44;100386.38;;;6.96;nan
84248;BME280;74387;44.536;18.530;2024-02-21T04:55:10;100390.69;;;7.01;nan
84248;BME280;74387;44.536;18.530;2024-02-21T04:57:36;100397.25;;;7.03;nan
84248;BME280;74387;44.536;18.530;2024-02-21T05:00:02;100393.88;;;7.07;nan
84248;BME280;74387;44.536;18.530;2024-02-21T05:02:29;100397.75;;;7.09;nan
84248;BME280;74387;44.536;18.530;2024-02-21T05:04:55;100403.47;;;7.08;nan
84248;BME280;74387;44.536;18.530;2024-02-21T05:07:21;100403.31;;;7.00;nan
84248;BME280;74387;44.536;18.530;2024-02-21T05:09:47;100400.06;;;6.91;nan
84248;BME280;74387;44.536;18.530;2024-02-21T05:12:13;100400.91;;;6.95;nan
84248;BME280;74387;44.536;18.530;2024-02-21T05:14:39;100403.75;;;7.02;nan
84248;BME280;74387;44.536;18.530;2024-02-21T05:17:05;100409.44;;;6.82;nan
84248;BME280;74387;44.536;18.530;2024-02-21T05:19:31;100404.50;;;6.64;nan
84248;BME280;74387;44.536;18.530;2024-02-21T05:21:58;100402.69;;;6.53;nan
84248;BME280;74387;44.536;18.530;2024-02-21T05:24:24;100397.84;;;6.58;nan
84248;BME280;74387;44.536;18.530;2024-02-21T05:26:53;100399.56;;;6.66;nan
84248;BME280;74387;44.536;18.530;2024-02-21T05:29:19;100403.19;;;6.74;nan
84248;BME280;74387;44.536;18.530;2024-02-21T05:31:56;100400.22;;;6.79;nan
84248;BME280;74387;44.536;18.530;2024-02-21T05:34:25;100403.44;;;6.88;nan
84248;BME280;74387;44.536;18.530;2024-02-21T05:37:07;100411.28;;;6.97;nan
84248;BME280;74387;44.536;18.530;2024-02-21T05:40:13;100413.63;;;6.98;nan
84248;BME280;74387;44.536;18.530;2024-02-21T05:43:25;100414.59;;;6.90;nan
84248;BME280;74387;44.536;18.530;2024-02-21T05:45:51;100414.88;;;6.85;nan
84248;BME280;74387;44.536;18.530;2024-02-21T05:48:23;100413.06;;;6.89;nan
84248;BME280;74387;44.536;18.530;2024-02-21T05:50:52;100417.38;;;6.94;nan
84248;BME280;74387;44.536;18.530;2024-02-21T05:53:25;100411.22;;;6.93;nan
84248;BME280;74387;44.536;18.530;2024-02-21T05:56:30;100416.94;;;6.92;nan
84248;BME280;74387;44.536;18.530;2024-02-21T06:00:09;100415.56;;;6.82;nan
84248;BME280;74387;44.536;18.530;2024-02-21T06:03:38;100413.31;;;6.84;nan
84248;BME280;74387;44.536;18.530;2024-02-21T06:10:50;100417.22;;;6.87;nan
84248;BME280;74387;44.536;18.530;2024-02-21T06:21:06;100416.16;;;6.72;nan
84248;BME280;74387;44.536;18.530;2024-02-21T06:23:45;100422.06;;;6.62;nan
84248;BME280;74387;44.536;18.530;2024-02-21T06:26:18;100430.28;;;6.53;nan
84248;BME280;74387;44.536;18.530;2024-02-21T06:28:55;100433.16;;;6.45;nan
84248;BME280;74387;44.536;18.530;2024-02-21T06:31:40;100436.88;;;6.40;nan
84248;BME280;74387;44.536;18.530;2024-02-21T06:34:17;100434.19;;;6.40;nan
84248;BME280;74387;44.536;18.530;2024-02-21T06:36:47;100431.75;;;6.51;nan
84248;BME280;74387;44.536;18.530;2024-02-21T06:39:30;100434.00;;;6.64;nan
84248;BME280;74387;44.536;18.530;2024-02-21T06:42:02;100425.69;;;6.69;nan
